TimeEDT,TemperatureF,Dew PointF,Humidity,Sea Level PressureIn,VisibilityMPH,Wind Direction,Wind SpeedMPH,Gust SpeedMPH,PrecipitationIn,Events,Conditions,WindDirDegrees,DateUTC
12:15 AM,56.5,51.8,84,30.07,10.0,Calm,Calm,-,N/A,,Scattered Clouds,0,2012-10-06 04:15:00
12:35 AM,55.6,51.1,85,30.06,10.0,Calm,Calm,-,N/A,,Scattered Clouds,0,2012-10-06 04:35:00
12:55 AM,55.0,51.6,88,30.06,7.0,Calm,Calm,-,N/A,,Scattered Clouds,0,2012-10-06 04:55:00
1:15 AM,55.4,52.0,88,30.06,10.0,Calm,Calm,-,N/A,,Mostly Cloudy,0,2012-10-06 05:15:00
1:35 AM,55.8,51.6,86,30.05,5.0,Calm,Calm,-,N/A,,Mostly Cloudy,0,2012-10-06 05:35:00
2:15 AM,55.2,51.8,88,30.03,7.0,Calm,Calm,-,N/A,,Scattered Clouds,0,2012-10-06 06:15:00
2:35 AM,55.0,52.0,89,30.03,7.0,Calm,Calm,-,N/A,,Clear,0,2012-10-06 06:35:00
3:15 AM,55.4,52.5,90,30.01,5.0,Calm,Calm,-,N/A,,Clear,0,2012-10-06 07:15:00
3:55 AM,54.7,52.0,91,30.01,7.0,Calm,Calm,-,N/A,,Clear,0,2012-10-06 07:55:00
4:15 AM,55.0,52.2,90,30.01,5.0,Calm,Calm,-,N/A,,Clear,0,2012-10-06 08:15:00
4:35 AM,54.5,51.3,89,30.01,7.0,Calm,Calm,-,N/A,,Clear,0,2012-10-06 08:35:00
4:55 AM,54.5,51.4,89,30.02,7.0,Calm,Calm,-,N/A,,Clear,0,2012-10-06 08:55:00
5:15 AM,54.9,52.0,90,30.01,7.0,Calm,Calm,-,N/A,,Scattered Clouds,0,2012-10-06 09:15:00
6:15 AM,54.3,51.4,90,30.01,7.0,Calm,Calm,-,N/A,,Clear,0,2012-10-06 10:15:00
6:35 AM,55.0,52.7,92,30.02,5.0,Calm,Calm,-,N/A,,Clear,0,2012-10-06 10:35:00
6:55 AM,54.5,52.2,92,30.02,5.0,Calm,Calm,-,N/A,,Scattered Clouds,0,2012-10-06 10:55:00
7:15 AM,54.7,52.7,93,30.02,5.0,Calm,Calm,-,N/A,,Mostly Cloudy,0,2012-10-06 11:15:00
7:35 AM,55.4,53.1,92,30.03,7.0,Calm,Calm,-,N/A,,Overcast,0,2012-10-06 11:35:00
7:55 AM,56.1,53.8,92,30.03,5.0,WSW,3.5,-,N/A,,Overcast,250,2012-10-06 11:55:00
8:15 AM,56.8,54.0,90,30.03,5.0,Calm,Calm,-,N/A,,Overcast,0,2012-10-06 12:15:00
8:35 AM,57.9,55.4,91,30.02,5.0,Calm,Calm,-,N/A,,Overcast,0,2012-10-06 12:35:00
8:55 AM,59.0,55.4,88,30.03,7.0,WNW,4.6,-,N/A,,Mostly Cloudy,290,2012-10-06 12:55:00
9:15 AM,61.0,55.4,82,30.02,7.0,West,3.5,-,N/A,,Scattered Clouds,270,2012-10-06 13:15:00
9:35 AM,61.7,55.6,80,30.02,10.0,West,5.8,-,N/A,,Mostly Cloudy,260,2012-10-06 13:35:00
9:55 AM,62.1,55.4,79,30.03,10.0,West,8.1,-,N/A,,Overcast,270,2012-10-06 13:55:00
10:15 AM,62.2,55.6,79,30.03,10.0,West,8.1,-,N/A,,Overcast,260,2012-10-06 14:15:00
10:35 AM,62.1,55.8,80,30.03,10.0,West,8.1,-,N/A,,Overcast,260,2012-10-06 14:35:00
10:55 AM,62.2,56.3,81,30.03,10.0,West,6.9,-,N/A,,Overcast,260,2012-10-06 14:55:00
11:15 AM,62.1,56.3,81,30.04,10.0,West,8.1,-,N/A,,Overcast,270,2012-10-06 15:15:00
11:35 AM,62.1,56.5,82,30.04,10.0,Calm,Calm,-,N/A,,Overcast,0,2012-10-06 15:35:00
11:55 AM,61.5,55.9,82,30.05,10.0,NNW,8.1,-,N/A,,Overcast,330,2012-10-06 15:55:00
12:15 PM,59.7,55.2,85,30.06,7.0,NNW,8.1,-,N/A,,Overcast,340,2012-10-06 16:15:00
12:35 PM,58.5,54.0,85,30.06,10.0,NNW,6.9,-,N/A,,Overcast,340,2012-10-06 16:35:00
12:55 PM,58.1,53.6,85,30.06,10.0,North,8.1,-,N/A,,Overcast,350,2012-10-06 16:55:00
1:15 PM,56.7,52.5,86,30.06,2.5,North,10.4,-,N/A,Rain,Light Rain,360,2012-10-06 17:15:00
1:35 PM,55.2,50.9,85,30.06,4.0,North,11.5,17.3,N/A,,Overcast,350,2012-10-06 17:35:00
2:15 PM,55.0,49.5,81,30.05,10.0,NNW,8.1,-,N/A,,Overcast,340,2012-10-06 18:15:00
2:35 PM,55.2,48.7,79,30.05,10.0,NNW,5.8,-,N/A,,Overcast,340,2012-10-06 18:35:00
2:55 PM,54.9,47.8,77,30.05,10.0,NW,3.5,-,N/A,,Overcast,320,2012-10-06 18:55:00
3:15 PM,55.0,48.0,77,30.05,10.0,Calm,Calm,-,N/A,,Overcast,0,2012-10-06 19:15:00
3:35 PM,54.5,47.8,78,30.05,10.0,NNW,4.6,-,N/A,,Overcast,330,2012-10-06 19:35:00
3:55 PM,54.7,46.9,75,30.04,10.0,Calm,Calm,-,N/A,,Overcast,0,2012-10-06 19:55:00
4:15 PM,54.7,46.4,74,30.04,10.0,NW,4.6,-,N/A,,Overcast,320,2012-10-06 20:15:00
4:35 PM,54.7,46.4,74,30.03,10.0,Calm,Calm,-,N/A,,Overcast,0,2012-10-06 20:35:00
4:55 PM,54.7,46.6,74,30.03,10.0,Calm,Calm,-,N/A,,Overcast,0,2012-10-06 20:55:00
5:15 PM,54.9,46.6,74,30.03,10.0,Calm,Calm,-,N/A,,Overcast,0,2012-10-06 21:15:00
5:35 PM,54.9,47.1,75,30.04,10.0,Calm,Calm,-,N/A,,Overcast,0,2012-10-06 21:35:00
5:55 PM,54.9,47.3,76,30.04,10.0,Calm,Calm,-,N/A,,Overcast,0,2012-10-06 21:55:00
6:15 PM,54.9,47.3,76,30.05,10.0,Calm,Calm,-,N/A,,Overcast,0,2012-10-06 22:15:00
6:35 PM,54.5,47.1,76,30.06,10.0,NNW,5.8,-,N/A,,Overcast,340,2012-10-06 22:35:00
6:55 PM,54.1,46.9,77,30.06,10.0,NNW,4.6,-,N/A,,Overcast,340,2012-10-06 22:55:00
7:15 PM,53.8,46.2,76,30.06,10.0,North,4.6,-,N/A,,Overcast,350,2012-10-06 23:15:00
7:35 PM,53.6,45.9,75,30.07,10.0,Calm,Calm,-,N/A,,Overcast,0,2012-10-06 23:35:00
7:55 PM,53.6,45.9,75,30.07,10.0,Calm,Calm,-,N/A,,Overcast,0,2012-10-06 23:55:00
8:15 PM,53.6,45.9,75,30.08,10.0,North,3.5,-,N/A,,Overcast,350,2012-10-07 00:15:00
8:35 PM,52.9,45.3,75,30.09,10.0,NNW,4.6,-,N/A,,Overcast,340,2012-10-07 00:35:00
8:55 PM,52.7,45.0,75,30.09,10.0,Calm,Calm,-,N/A,,Overcast,0,2012-10-07 00:55:00
9:15 PM,52.7,44.6,74,30.09,10.0,North,4.6,-,N/A,,Overcast,360,2012-10-07 01:15:00
9:35 PM,52.2,44.6,75,30.09,10.0,NNW,4.6,-,N/A,,Overcast,340,2012-10-07 01:35:00
9:55 PM,52.0,44.2,75,30.09,10.0,Calm,Calm,-,N/A,,Overcast,0,2012-10-07 01:55:00
10:15 PM,51.8,43.7,74,30.09,10.0,Calm,Calm,-,N/A,,Overcast,0,2012-10-07 02:15:00
10:35 PM,51.8,43.7,74,30.09,10.0,Calm,Calm,-,N/A,,Overcast,0,2012-10-07 02:35:00
10:55 PM,51.8,44.2,75,30.08,10.0,Calm,Calm,-,N/A,,Overcast,0,2012-10-07 02:55:00
11:15 PM,51.8,44.8,77,30.08,10.0,Calm,Calm,-,N/A,,Overcast,0,2012-10-07 03:15:00
11:35 PM,51.8,45.3,79,30.07,10.0,Calm,Calm,-,N/A,,Overcast,0,2012-10-07 03:35:00
11:55 PM,51.8,44.4,76,30.07,10.0,Calm,Calm,-,N/A,,Overcast,0,2012-10-07 03:55:00